createdAt,value
2022-11-16T00:01:33.137Z,97.44
2022-11-16T00:04:01.944Z,98.32
2022-11-16T00:06:28.989Z,98.18
2022-11-16T00:09:32.235Z,97.73
2022-11-16T00:12:01.958Z,98.51
2022-11-16T00:14:31.352Z,98.01
2022-11-16T00:16:58.754Z,98.64
2022-11-16T00:19:26.479Z,98.77
2022-11-16T00:21:53.573Z,99.09
2022-11-16T00:24:21.759Z,97.82
2022-11-16T00:26:48.970Z,98.44
2022-11-16T00:29:20.726Z,99.46
2022-11-16T00:31:48.671Z,99.47
2022-11-16T00:34:15.704Z,99.03
2022-11-16T00:36:42.265Z,98.44
2022-11-16T00:39:11.837Z,100.00
2022-11-16T00:41:38.362Z,100.00
2022-11-16T00:44:05.095Z,100.00
2022-11-16T00:46:31.793Z,100.00
2022-11-16T00:48:58.316Z,100.00
2022-11-16T00:51:24.923Z,100.00
2022-11-16T00:53:51.664Z,100.00
2022-11-16T00:56:18.209Z,100.00
2022-11-16T00:58:44.706Z,100.00
2022-11-16T01:01:11.874Z,100.00
2022-11-16T01:03:39.101Z,100.00
2022-11-16T01:06:08.192Z,100.00
2022-11-16T01:08:37.156Z,100.00
2022-11-16T01:11:23.244Z,100.00
2022-11-16T01:13:50.563Z,100.00
2022-11-16T01:16:19.086Z,100.00
2022-11-16T01:18:50.759Z,100.00
2022-11-16T01:21:18.521Z,100.00
2022-11-16T01:23:45.061Z,100.00
2022-11-16T01:26:11.652Z,100.00
2022-11-16T01:28:38.175Z,100.00
2022-11-16T01:31:04.755Z,100.00
2022-11-16T01:33:31.461Z,100.00
2022-11-16T01:35:58.029Z,100.00
2022-11-16T01:38:29.407Z,100.00
2022-11-16T01:40:56.593Z,100.00
2022-11-16T01:43:25.548Z,100.00
2022-11-16T01:45:52.684Z,100.00
2022-11-16T01:48:25.999Z,98.76
2022-11-16T01:50:56.359Z,98.80
2022-11-16T01:53:24.539Z,99.11
2022-11-16T01:55:52.011Z,100.00
2022-11-16T01:58:23.097Z,99.68
2022-11-16T02:00:50.167Z,100.00
2022-11-16T02:03:21.145Z,100.00
2022-11-16T02:06:02.512Z,100.00
2022-11-16T02:09:03.168Z,99.95
2022-11-16T02:11:38.309Z,99.50
2022-11-16T02:14:21.489Z,99.64
2022-11-16T02:17:18.946Z,99.12
2022-11-16T02:20:12.541Z,99.47
2022-11-16T02:22:57.376Z,98.97
2022-11-16T02:25:48.180Z,99.00
2022-11-16T02:28:14.658Z,98.20
2022-11-16T02:30:47.397Z,97.54
2022-11-16T02:33:18.531Z,96.50
2022-11-16T02:35:52.424Z,97.38
2022-11-16T02:38:29.457Z,97.41
2022-11-16T02:41:03.602Z,97.37
2022-11-16T02:43:35.827Z,97.58
2022-11-16T02:46:09.784Z,97.55
2022-11-16T02:48:41.970Z,97.36
2022-11-16T02:51:08.943Z,96.41
2022-11-16T02:53:50.937Z,97.98
2022-11-16T02:56:19.005Z,97.71
2022-11-16T02:58:47.269Z,98.29
2022-11-16T03:01:24.089Z,97.95
2022-11-16T03:04:28.364Z,98.74
2022-11-16T03:06:58.326Z,99.21
2022-11-16T03:09:30.136Z,98.92
2022-11-16T03:12:00.988Z,98.63
2022-11-16T03:14:52.078Z,98.79
2022-11-16T03:17:25.462Z,99.38
2022-11-16T03:20:04.615Z,98.68
2022-11-16T03:22:35.562Z,98.35
2022-11-16T03:25:02.762Z,99.45
2022-11-16T03:27:33.333Z,99.16
2022-11-16T03:30:04.479Z,99.47
2022-11-16T03:33:16.429Z,99.99
2022-11-16T03:36:01.236Z,99.77
2022-11-16T03:38:28.988Z,99.67
2022-11-16T03:41:01.779Z,99.27
2022-11-16T03:43:30.305Z,99.85
2022-11-16T03:45:57.812Z,100.00
2022-11-16T03:48:24.986Z,100.00
2022-11-16T03:50:52.235Z,100.00
2022-11-16T03:53:18.761Z,100.00
2022-11-16T03:55:49.618Z,100.00
2022-11-16T03:58:18.652Z,100.00
2022-11-16T04:00:45.718Z,100.00
2022-11-16T04:03:12.928Z,100.00
2022-11-16T04:05:58.708Z,100.00
2022-11-16T04:08:43.840Z,100.00
2022-11-16T04:11:32.933Z,100.00
2022-11-16T04:14:22.757Z,100.00
2022-11-16T04:17:08.420Z,100.00
2022-11-16T04:19:57.937Z,100.00
2022-11-16T04:22:50.413Z,100.00
2022-11-16T04:25:27.164Z,100.00
2022-11-16T04:28:13.416Z,100.00
2022-11-16T04:31:05.061Z,100.00
2022-11-16T04:34:04.335Z,100.00
2022-11-16T04:36:49.099Z,100.00
2022-11-16T04:39:15.870Z,100.00
2022-11-16T04:42:00.652Z,100.00
2022-11-16T04:44:47.169Z,100.00
2022-11-16T04:47:13.656Z,100.00
2022-11-16T04:49:40.149Z,100.00
2022-11-16T04:52:06.733Z,100.00
2022-11-16T04:54:33.289Z,100.00
2022-11-16T04:56:59.860Z,100.00
2022-11-16T04:59:26.555Z,100.00
2022-11-16T05:02:13.350Z,100.00
2022-11-16T05:04:42.401Z,100.00
2022-11-16T05:07:14.710Z,100.00
2022-11-16T05:09:46.621Z,100.00
2022-11-16T05:12:25.233Z,100.00
2022-11-16T05:14:52.594Z,100.00
2022-11-16T05:17:19.685Z,100.00
2022-11-16T05:20:04.877Z,100.00
2022-11-16T05:22:31.792Z,100.00
2022-11-16T05:24:58.542Z,99.96
2022-11-16T05:27:27.990Z,100.00
2022-11-16T05:29:55.301Z,99.45
2022-11-16T05:32:23.217Z,99.67
2022-11-16T05:34:50.175Z,100.00
2022-11-16T05:37:17.559Z,99.44
2022-11-16T05:39:44.437Z,99.44
2022-11-16T05:42:11.687Z,99.47
2022-11-16T05:44:38.289Z,100.00
2022-11-16T05:47:05.322Z,99.65
2022-11-16T05:49:32.029Z,100.00
2022-11-16T05:51:58.568Z,100.00
2022-11-16T05:54:26.199Z,100.00
2022-11-16T05:56:53.994Z,100.00
2022-11-16T05:59:22.264Z,100.00
2022-11-16T06:01:49.571Z,100.00
2022-11-16T06:06:57.357Z,100.00
2022-11-16T06:09:23.971Z,99.84
2022-11-16T06:11:50.470Z,99.92
2022-11-16T06:14:17.038Z,100.00
2022-11-16T06:16:43.715Z,100.00
2022-11-16T06:19:10.294Z,100.00
2022-11-16T06:21:36.808Z,100.00
2022-11-16T06:24:09.232Z,100.00
2022-11-16T06:26:37.009Z,100.00
2022-11-16T06:29:04.138Z,100.00
2022-11-16T06:31:31.263Z,100.00
2022-11-16T06:33:57.795Z,100.00
2022-11-16T06:36:24.511Z,100.00
2022-11-16T06:38:51.321Z,100.00
2022-11-16T06:41:18.028Z,100.00
2022-11-16T06:43:44.854Z,100.00
2022-11-16T06:46:11.695Z,100.00
2022-11-16T06:48:38.238Z,100.00
2022-11-16T06:51:04.876Z,100.00
2022-11-16T06:53:31.548Z,100.00
2022-11-16T06:56:05.355Z,100.00
2022-11-16T06:58:32.464Z,100.00
2022-11-16T07:01:09.344Z,100.00
2022-11-16T07:03:36.065Z,100.00
2022-11-16T07:06:10.753Z,100.00
2022-11-16T07:08:38.104Z,100.00
2022-11-16T07:11:05.860Z,100.00
2022-11-16T07:13:33.480Z,100.00
2022-11-16T07:16:05.625Z,100.00
2022-11-16T07:18:34.728Z,100.00
2022-11-16T07:21:15.107Z,100.00
2022-11-16T07:23:41.692Z,100.00
2022-11-16T07:26:09.982Z,100.00
2022-11-16T07:28:36.790Z,100.00
2022-11-16T07:31:08.862Z,100.00
2022-11-16T07:33:36.461Z,100.00
2022-11-16T07:36:08.748Z,100.00
2022-11-16T07:38:36.080Z,100.00
2022-11-16T07:41:07.951Z,100.00
2022-11-16T07:43:37.886Z,100.00
2022-11-16T07:46:45.392Z,100.00
2022-11-16T07:48:51.568Z,100.00
2022-11-16T07:51:20.069Z,100.00
2022-11-16T07:53:46.616Z,100.00
2022-11-16T07:56:13.639Z,100.00
2022-11-16T07:58:40.661Z,100.00
2022-11-16T08:01:13.181Z,99.80
2022-11-16T08:03:40.948Z,100.00
2022-11-16T08:06:21.168Z,99.88
2022-11-16T08:08:47.768Z,99.47
2022-11-16T08:11:14.760Z,99.91
2022-11-16T08:13:42.387Z,99.13
2022-11-16T08:16:13.207Z,98.76
2022-11-16T08:18:40.716Z,98.71
2022-11-16T08:21:09.276Z,98.54
2022-11-16T08:23:36.492Z,98.73
2022-11-16T08:26:15.406Z,98.03
2022-11-16T08:28:44.088Z,97.43
2022-11-16T08:31:20.951Z,97.25
2022-11-16T08:33:48.211Z,97.00
2022-11-16T08:36:17.986Z,96.67
2022-11-16T08:38:49.604Z,96.94
2022-11-16T08:44:01.608Z,96.80
2022-11-16T08:46:28.654Z,97.34
2022-11-16T08:48:57.195Z,96.97
2022-11-16T08:51:24.796Z,96.59
2022-11-16T08:53:56.879Z,96.22
2022-11-16T08:56:24.079Z,96.30
2022-11-16T08:58:58.149Z,94.53
2022-11-16T09:01:27.910Z,94.79
2022-11-16T09:03:54.961Z,94.91
2022-11-16T09:06:22.536Z,94.36
2022-11-16T09:08:49.984Z,93.83
2022-11-16T09:11:19.801Z,94.04
2022-11-16T09:13:48.178Z,94.25
2022-11-16T09:16:16.713Z,94.85
2022-11-16T09:18:46.775Z,94.37
2022-11-16T09:21:21.670Z,94.29
2022-11-16T09:23:49.340Z,95.50
2022-11-16T09:26:18.936Z,94.78
2022-11-16T09:28:48.050Z,95.78
2022-11-16T09:31:17.667Z,94.94
2022-11-16T09:33:48.721Z,94.92
2022-11-16T09:36:15.961Z,94.56
2022-11-16T09:41:50.693Z,93.29
2022-11-16T09:44:42.152Z,93.54
2022-11-16T09:47:19.214Z,93.53
2022-11-16T09:49:58.206Z,93.00
2022-11-16T09:52:37.535Z,93.07
2022-11-16T09:55:28.780Z,92.62
2022-11-16T09:58:00.049Z,90.51
2022-11-16T10:00:28.969Z,87.33
2022-11-16T10:03:05.546Z,85.24
2022-11-16T10:05:45.106Z,83.63
2022-11-16T10:08:33.848Z,82.39
2022-11-16T10:11:18.871Z,80.75
2022-11-16T10:14:03.725Z,82.66
2022-11-16T10:16:36.857Z,81.36
2022-11-16T10:19:14.825Z,82.71
2022-11-16T10:22:08.325Z,80.29
2022-11-16T10:24:51.129Z,79.59
2022-11-16T10:27:46.477Z,79.83
2022-11-16T10:30:20.816Z,79.33
2022-11-16T10:33:10.966Z,77.79
2022-11-16T10:35:42.926Z,75.61
2022-11-16T10:38:22.003Z,76.38
2022-11-16T10:40:55.332Z,77.27
2022-11-16T10:43:28.740Z,79.91
2022-11-16T10:46:20.205Z,81.30
2022-11-16T10:48:55.426Z,80.85
2022-11-16T10:51:21.981Z,81.46
2022-11-16T10:53:49.531Z,80.50
2022-11-16T10:56:25.077Z,80.85
2022-11-16T10:58:57.528Z,81.78
2022-11-16T11:01:41.160Z,81.30
2022-11-16T11:04:31.514Z,81.67
2022-11-16T11:07:21.677Z,82.65
2022-11-16T11:09:54.799Z,86.01
2022-11-16T11:12:38.969Z,85.33
2022-11-16T11:15:26.222Z,85.24
2022-11-16T11:18:30.319Z,84.00
2022-11-16T11:21:08.079Z,84.60
2022-11-16T11:23:51.477Z,82.55
2022-11-16T11:26:36.860Z,81.55
2022-11-16T11:29:17.011Z,79.84
2022-11-16T11:31:46.832Z,80.33
2022-11-16T11:34:21.533Z,79.73
2022-11-16T11:36:53.596Z,83.94
2022-11-16T11:39:20.145Z,82.31
2022-11-16T11:42:01.656Z,84.09
2022-11-16T11:44:37.569Z,85.74
2022-11-16T11:50:16.717Z,86.98
2022-11-16T11:52:59.536Z,83.65
2022-11-16T11:55:26.322Z,84.05
2022-11-16T11:57:54.517Z,84.17
2022-11-16T12:00:21.335Z,84.11
2022-11-16T12:03:26.021Z,82.46
2022-11-16T12:06:28.157Z,81.20
2022-11-16T12:09:14.944Z,80.16
2022-11-16T12:11:41.412Z,78.38
2022-11-16T12:14:51.097Z,80.24
2022-11-16T12:17:30.200Z,79.00
2022-11-16T12:19:58.193Z,77.81
2022-11-16T12:22:47.832Z,78.67
2022-11-16T12:25:33.462Z,79.87
2022-11-16T12:28:18.402Z,80.99
2022-11-16T12:31:10.172Z,78.64
2022-11-16T12:33:44.318Z,80.22
2022-11-16T12:36:29.463Z,76.82
2022-11-16T12:39:28.359Z,78.12
2022-11-16T12:42:13.202Z,77.53
2022-11-16T12:45:03.880Z,75.12
2022-11-16T12:48:04.938Z,74.62
2022-11-16T12:51:05.557Z,74.70
2022-11-16T12:53:56.144Z,76.59
2022-11-16T12:56:49.985Z,76.49
2022-11-16T12:59:37.524Z,78.86
2022-11-16T13:02:07.132Z,78.80
2022-11-16T13:04:58.627Z,78.39
2022-11-16T13:07:31.857Z,79.61
2022-11-16T13:10:09.629Z,78.60
2022-11-16T13:12:37.401Z,77.61
2022-11-16T13:15:04.606Z,78.86
2022-11-16T13:17:36.796Z,79.26
2022-11-16T13:20:18.223Z,78.69
2022-11-16T13:22:53.565Z,78.87
2022-11-16T13:25:41.293Z,80.32
2022-11-16T13:28:33.540Z,80.70
2022-11-16T13:31:35.422Z,81.53
2022-11-16T13:34:07.526Z,81.25
2022-11-16T13:36:37.332Z,82.73
2022-11-16T13:39:06.416Z,81.19
2022-11-16T13:41:37.730Z,82.48
2022-11-16T13:44:14.661Z,82.40
2022-11-16T13:46:56.740Z,83.03
2022-11-16T13:49:35.066Z,82.65
2022-11-16T13:52:22.510Z,82.32
2022-11-16T13:54:52.700Z,82.95
2022-11-16T13:57:24.978Z,83.29
2022-11-16T14:00:11.673Z,82.85
2022-11-16T14:02:42.370Z,84.28
2022-11-16T14:05:41.850Z,84.57
2022-11-16T14:08:21.194Z,84.28
2022-11-16T14:10:50.479Z,84.02
2022-11-16T14:13:43.945Z,83.63
2022-11-16T14:16:19.624Z,82.73
2022-11-16T14:18:51.372Z,83.37
2022-11-16T14:21:51.467Z,83.30
2022-11-16T14:24:43.962Z,83.98
2022-11-16T14:27:36.007Z,84.85
2022-11-16T14:30:23.297Z,84.89
2022-11-16T14:32:53.387Z,83.86
2022-11-16T14:35:34.308Z,83.73
2022-11-16T14:38:16.656Z,84.45
2022-11-16T14:40:47.105Z,84.62
2022-11-16T14:43:44.667Z,85.05
2022-11-16T14:46:23.187Z,85.21
2022-11-16T14:48:50.457Z,85.21
2022-11-16T14:51:21.952Z,84.56
2022-11-16T14:53:51.992Z,84.49
2022-11-16T14:56:19.848Z,84.41
2022-11-16T14:58:56.916Z,85.67
2022-11-16T15:01:28.259Z,85.77
2022-11-16T15:04:02.747Z,85.19
2022-11-16T15:06:33.056Z,84.51
2022-11-16T15:09:04.180Z,84.71
2022-11-16T15:11:56.020Z,84.88
2022-11-16T15:14:29.577Z,84.83
2022-11-16T15:16:57.821Z,84.93
2022-11-16T15:19:25.084Z,84.65
2022-11-16T15:22:00.469Z,84.12
2022-11-16T15:24:32.646Z,85.98
2022-11-16T15:27:12.373Z,86.40
2022-11-16T15:29:39.119Z,86.44
2022-11-16T15:32:07.086Z,85.40
2022-11-16T15:34:33.789Z,85.50
2022-11-16T15:37:00.293Z,86.80
2022-11-16T15:39:32.929Z,86.72
2022-11-16T15:42:03.729Z,86.47
2022-11-16T15:44:31.921Z,86.75
2022-11-16T15:46:59.404Z,86.75
2022-11-16T15:49:38.402Z,86.54
2022-11-16T15:52:05.478Z,86.23
2022-11-16T15:54:53.137Z,86.36
2022-11-16T15:57:21.223Z,86.34
2022-11-16T15:59:50.448Z,87.75
2022-11-16T16:02:20.793Z,88.34
2022-11-16T16:04:47.771Z,88.00
2022-11-16T16:07:36.933Z,89.06
2022-11-16T16:10:18.662Z,89.54
2022-11-16T16:13:23.148Z,90.41
2022-11-16T16:16:24.043Z,91.04
2022-11-16T16:18:52.254Z,92.26
2022-11-16T16:21:19.520Z,92.51
2022-11-16T16:23:52.340Z,92.06
2022-11-16T16:26:19.049Z,92.06
2022-11-16T16:28:45.940Z,91.66
2022-11-16T16:31:13.383Z,92.16
2022-11-16T16:33:41.158Z,92.20
2022-11-16T16:36:08.507Z,92.02
2022-11-16T16:38:35.438Z,93.32
2022-11-16T16:41:04.826Z,93.60
2022-11-16T16:43:32.458Z,93.55
2022-11-16T16:46:03.851Z,93.77
2022-11-16T16:48:30.942Z,93.89
2022-11-16T16:50:57.722Z,94.18
2022-11-16T16:53:24.519Z,94.58
2022-11-16T16:55:51.663Z,92.69
2022-11-16T16:58:18.913Z,91.58
2022-11-16T17:00:46.330Z,91.06
2022-11-16T17:03:13.235Z,91.14
2022-11-16T17:05:40.260Z,90.30
2022-11-16T17:08:07.848Z,89.45
2022-11-16T17:10:37.273Z,91.01
2022-11-16T17:13:04.617Z,91.54
2022-11-16T17:15:32.048Z,91.87
2022-11-16T17:17:59.923Z,92.41
2022-11-16T17:20:26.978Z,92.71
2022-11-16T17:22:54.162Z,93.36
2022-11-16T17:25:21.571Z,92.08
2022-11-16T17:27:49.493Z,90.93
2022-11-16T17:30:17.493Z,89.89
2022-11-16T17:32:44.994Z,90.88
2022-11-16T17:35:13.354Z,91.50
2022-11-16T17:37:41.109Z,92.69
2022-11-16T17:40:09.741Z,92.85
2022-11-16T17:42:37.439Z,92.83
2022-11-16T17:45:05.754Z,93.73
2022-11-16T17:47:34.240Z,94.05
2022-11-16T17:50:02.092Z,93.92
2022-11-16T17:52:29.734Z,94.17
2022-11-16T17:54:57.438Z,95.23
2022-11-16T17:57:25.374Z,95.42
2022-11-16T17:59:53.221Z,95.11
2022-11-16T18:02:20.237Z,93.97
2022-11-16T18:04:51.076Z,93.04
2022-11-16T18:07:18.316Z,94.04
2022-11-16T18:09:44.945Z,94.52
2022-11-16T18:12:11.480Z,95.67
2022-11-16T18:14:38.178Z,95.44
2022-11-16T18:17:04.890Z,93.61
2022-11-16T18:19:31.388Z,93.02
2022-11-16T18:21:58.089Z,92.49
2022-11-16T18:24:24.611Z,92.96
2022-11-16T18:26:51.139Z,93.73
2022-11-16T18:29:19.239Z,93.44
2022-11-16T18:31:45.775Z,93.39
2022-11-16T18:34:14.363Z,93.91
2022-11-16T18:36:41.046Z,94.63
2022-11-16T18:39:08.322Z,94.63
2022-11-16T18:41:35.105Z,94.58
2022-11-16T18:44:02.357Z,94.30
2022-11-16T18:46:31.082Z,94.91
2022-11-16T18:48:58.319Z,96.90
2022-11-16T18:51:27.353Z,96.15
2022-11-16T18:53:54.493Z,96.79
2022-11-16T18:56:21.477Z,96.18
2022-11-16T18:58:51.276Z,95.61
2022-11-16T19:01:20.757Z,95.52
2022-11-16T19:03:47.402Z,95.29
2022-11-16T19:06:17.294Z,95.75
2022-11-16T19:08:47.787Z,95.57
2022-11-16T19:11:18.872Z,94.87
2022-11-16T19:13:45.523Z,94.71
2022-11-16T19:16:13.534Z,93.73
2022-11-16T19:18:40.860Z,93.98
2022-11-16T19:21:13.154Z,92.90
2022-11-16T19:23:43.023Z,91.81
2022-11-16T19:26:12.281Z,93.60
2022-11-16T19:28:40.568Z,93.30
2022-11-16T19:31:12.688Z,92.39
2022-11-16T19:33:40.395Z,92.17
2022-11-16T19:36:07.994Z,92.47
2022-11-16T19:38:34.660Z,92.11
2022-11-16T19:41:01.427Z,92.29
2022-11-16T19:43:28.166Z,92.02
2022-11-16T19:45:54.916Z,92.30
2022-11-16T19:48:21.555Z,92.64
2022-11-16T19:50:48.187Z,94.37
2022-11-16T19:53:14.946Z,96.90
2022-11-16T19:55:41.840Z,97.30
2022-11-16T19:58:08.397Z,96.24
2022-11-16T20:00:35.208Z,96.32
2022-11-16T20:03:01.854Z,95.97
2022-11-16T20:05:30.060Z,95.82
2022-11-16T20:07:56.668Z,95.17
2022-11-16T20:10:23.237Z,95.83
2022-11-16T20:12:49.843Z,95.93
2022-11-16T20:15:16.565Z,96.18
2022-11-16T20:17:43.168Z,95.56
2022-11-16T20:20:10.128Z,95.60
2022-11-16T20:22:36.725Z,94.64
2022-11-16T20:25:03.410Z,94.43
2022-11-16T20:27:30.040Z,94.39
2022-11-16T20:29:56.763Z,94.04
2022-11-16T20:32:23.998Z,93.56
2022-11-16T20:34:50.998Z,93.84
2022-11-16T20:37:17.614Z,93.75
2022-11-16T20:39:46.900Z,93.88
2022-11-16T20:42:13.988Z,94.24
2022-11-16T20:44:40.633Z,94.79
2022-11-16T20:47:07.292Z,94.66
2022-11-16T20:49:34.156Z,95.27
2022-11-16T20:52:01.140Z,94.74
2022-11-16T20:54:27.959Z,94.64
2022-11-16T20:56:54.690Z,94.69
2022-11-16T20:59:21.497Z,95.23
2022-11-16T21:01:52.409Z,95.12
2022-11-16T21:04:19.075Z,95.46
2022-11-16T21:06:45.862Z,94.83
2022-11-16T21:09:15.567Z,94.50
2022-11-16T21:12:00.770Z,94.99
2022-11-16T21:14:27.490Z,94.74
2022-11-16T21:16:54.091Z,94.69
2022-11-16T21:19:20.776Z,96.26
2022-11-16T21:21:47.366Z,96.03
2022-11-16T21:24:13.983Z,94.78
2022-11-16T21:26:40.719Z,95.11
2022-11-16T21:29:07.322Z,95.07
2022-11-16T21:31:36.127Z,94.72
2022-11-16T21:34:03.263Z,94.59
2022-11-16T21:36:32.190Z,94.83
2022-11-16T21:38:59.396Z,95.43
2022-11-16T21:41:27.031Z,95.94
2022-11-16T21:43:53.810Z,95.82
2022-11-16T21:46:22.700Z,95.48
2022-11-16T21:48:51.164Z,95.51
2022-11-16T21:51:19.935Z,95.34
2022-11-16T21:53:46.887Z,95.72
2022-11-16T21:56:16.357Z,95.07
2022-11-16T21:58:43.501Z,94.67
2022-11-16T22:01:11.373Z,94.34
2022-11-16T22:03:38.582Z,94.52
2022-11-16T22:06:25.385Z,93.73
2022-11-16T22:08:52.384Z,94.48
2022-11-16T22:11:22.156Z,94.03
2022-11-16T22:13:49.800Z,94.19
2022-11-16T22:16:18.070Z,93.60
2022-11-16T22:18:44.690Z,93.10
2022-11-16T22:21:11.688Z,93.22
2022-11-16T22:23:39.145Z,93.26
2022-11-16T22:26:09.156Z,94.60
2022-11-16T22:28:36.661Z,94.79
2022-11-16T22:31:07.561Z,94.62
2022-11-16T22:33:35.035Z,94.66
2022-11-16T22:36:02.138Z,94.47
2022-11-16T22:38:29.002Z,94.52
2022-11-16T22:40:57.019Z,94.38
2022-11-16T22:43:26.122Z,93.90
2022-11-16T22:46:00.359Z,93.21
2022-11-16T22:48:31.333Z,93.24
2022-11-16T22:51:26.904Z,93.79
2022-11-16T22:53:58.512Z,93.58
2022-11-16T22:56:25.947Z,93.13
2022-11-16T22:58:52.889Z,93.62
2022-11-16T23:01:20.322Z,93.81
2022-11-16T23:03:47.928Z,93.33
2022-11-16T23:06:15.237Z,92.93
2022-11-16T23:08:41.979Z,93.34
2022-11-16T23:11:31.803Z,92.99
2022-11-16T23:14:17.322Z,92.61
2022-11-16T23:16:44.693Z,91.71
2022-11-16T23:19:31.941Z,91.11
2022-11-16T23:22:18.060Z,92.61
2022-11-16T23:25:04.000Z,91.97
2022-11-16T23:27:44.679Z,92.16
2022-11-16T23:30:13.076Z,92.54
2022-11-16T23:32:40.152Z,92.37
2022-11-16T23:35:07.033Z,93.68
2022-11-16T23:37:33.659Z,93.78
2022-11-16T23:40:00.378Z,93.70
2022-11-16T23:42:45.314Z,93.21
2022-11-16T23:45:11.951Z,92.39
2022-11-16T23:47:38.568Z,92.69
2022-11-16T23:50:05.821Z,93.37
2022-11-16T23:52:32.420Z,93.50
2022-11-16T23:54:58.974Z,94.06
2022-11-16T23:57:25.699Z,93.95
2022-11-16T23:59:52.281Z,93.93
